Time;durP1;ratioP1;P1;durP2;ratioP2;P2;SDS_P1;SDS_P2;PMS_P1;PMS_P2;Temp;Humidity;BMP_temperature;BMP_pressure;BME280_temperature;BME280_humidity;BME280_pressure;Samples;Min_cycle;Max_cycle;Signal;HPM_P1;HPM_P2
2022/12/10 04:38:00;;;;;;;20.73;10.27;;;6.00;99.90;;;;;;5196473;24;20056;-78
2022/12/10 04:40:29;;;;;;;22.10;9.73;;;6.00;99.90;;;;;;4759686;30;20058;-78
2022/12/10 04:42:56;;;;;;;28.60;15.23;;;6.00;99.90;;;;;;4741346;30;20072;-78
2022/12/10 04:45:24;;;;;;;25.55;10.57;;;6.00;99.90;;;;;;4743187;30;20029;-78
2022/12/10 04:47:52;;;;;;;21.45;9.65;;;5.90;99.90;;;;;;4741512;30;20096;-78
2022/12/10 04:50:21;;;;;;;21.42;9.25;;;5.90;99.90;;;;;;4726461;30;20048;-78
2022/12/10 04:52:51;;;;;;;22.92;8.98;;;5.90;99.90;;;;;;4730533;30;20075;-78
2022/12/10 04:55:18;;;;;;;22.40;8.75;;;5.90;99.90;;;;;;4714245;30;20086;-78
2022/12/10 04:57:52;;;;;;;;;;;5.90;99.90;;;;;;4717916;30;20064;-78
2022/12/10 05:00:19;;;;;;;19.52;7.00;;;5.80;99.90;;;;;;4710068;30;19935;-78
2022/12/10 05:02:48;;;;;;;20.17;9.07;;;5.90;99.90;;;;;;4710887;30;20062;-78
2022/12/10 05:05:16;;;;;;;22.92;8.52;;;5.90;99.90;;;;;;4726352;30;20053;-78
2022/12/10 05:07:43;;;;;;;20.02;9.13;;;5.90;99.90;;;;;;4717431;30;20045;-78
2022/12/10 05:10:11;;;;;;;26.13;10.25;;;5.90;99.90;;;;;;4729403;30;20097;-78
2022/12/10 05:12:39;;;;;;;21.10;9.15;;;5.80;99.90;;;;;;4716192;30;20072;-78
2022/12/10 05:15:08;;;;;;;18.50;7.57;;;5.80;99.90;;;;;;4716263;30;20075;-78
2022/12/10 05:17:36;;;;;;;21.40;8.23;;;5.80;99.90;;;;;;4705808;30;20080;-78
2022/12/10 05:20:05;;;;;;;18.95;7.68;;;5.70;99.90;;;;;;4695856;30;20053;-78
2022/12/10 05:25:22;;;;;;;13.55;5.95;;;5.70;99.90;;;;;;4749159;30;20059;-78
2022/12/10 05:27:51;;;;;;;17.10;6.30;;;5.70;99.90;;;;;;4731675;30;20120;-78
2022/12/10 05:30:19;;;;;;;11.88;5.18;;;5.70;99.90;;;;;;4745093;30;20053;-78
2022/12/10 05:32:47;;;;;;;12.77;5.82;;;5.70;99.90;;;;;;4749233;30;20032;-78
2022/12/10 05:35:14;;;;;;;15.07;6.03;;;5.70;99.90;;;;;;4732505;30;20049;-78
2022/12/10 05:37:42;;;;;;;13.90;5.40;;;5.70;99.90;;;;;;4736277;30;20048;-78
2022/12/10 05:40:14;;;;;;;13.43;4.90;;;5.70;99.90;;;;;;4745296;30;20060;-78
2022/12/10 05:42:43;;;;;;;14.23;4.13;;;5.70;99.90;;;;;;4738491;30;20053;-78
2022/12/10 05:45:12;;;;;;;10.18;4.63;;;5.60;99.90;;;;;;4737060;30;20041;-78
2022/12/10 05:47:40;;;;;;;14.38;4.60;;;5.70;99.90;;;;;;4793614;24;20052;-78
2022/12/10 05:50:07;;;;;;;11.50;4.03;;;5.70;99.90;;;;;;4758517;30;20067;-78
2022/12/10 05:52:35;;;;;;;12.50;5.03;;;5.70;99.90;;;;;;4742946;30;20117;-78
2022/12/10 05:55:02;;;;;;;13.45;5.10;;;5.70;99.90;;;;;;4739622;30;20083;-78
2022/12/10 05:57:29;;;;;;;11.82;4.75;;;5.70;99.90;;;;;;4737634;30;20063;-78
2022/12/10 05:59:57;;;;;;;13.80;5.15;;;5.60;99.90;;;;;;4728205;30;20053;-78
2022/12/10 06:02:25;;;;;;;17.48;7.68;;;5.70;99.90;;;;;;4741988;30;20040;-78
2022/12/10 06:04:53;;;;;;;21.08;8.80;;;5.70;99.90;;;;;;4740550;30;20409;-78
2022/12/10 06:07:23;;;;;;;29.48;11.52;;;5.70;99.90;;;;;;4723644;30;20065;-78
2022/12/10 06:09:52;;;;;;;33.08;14.02;;;5.70;99.90;;;;;;4718562;30;20057;-78
2022/12/10 06:12:20;;;;;;;33.05;12.68;;;5.70;99.90;;;;;;4725438;30;20057;-78
2022/12/10 06:14:48;;;;;;;29.50;11.85;;;5.60;99.90;;;;;;4706605;30;20061;-78
2022/12/10 06:17:16;;;;;;;31.60;11.82;;;5.70;99.90;;;;;;4702359;30;20597;-78
2022/12/10 06:19:43;;;;;;;31.05;11.32;;;5.70;99.90;;;;;;4717903;30;20639;-78
2022/12/10 06:22:11;;;;;;;32.63;12.13;;;5.60;99.90;;;;;;4696152;30;20052;-78
2022/12/10 06:24:38;;;;;;;31.10;11.93;;;5.70;99.90;;;;;;4693773;30;20538;-78
2022/12/10 06:27:05;;;;;;;32.40;12.98;;;5.60;99.90;;;;;;4699166;30;20137;-77
2022/12/10 06:29:32;;;;;;;35.08;13.57;;;6.20;99.90;;;;;;4713603;30;20148;-77
2022/12/10 06:32:00;;;;;;;37.17;15.27;;;5.60;99.90;;;;;;4699309;30;20124;-77
2022/12/10 06:34:28;;;;;;;37.90;14.27;;;5.60;99.90;;;;;;4699805;30;20058;-77
2022/12/10 06:36:55;;;;;;;36.13;15.77;;;5.60;99.90;;;;;;4698230;30;20104;-77
2022/12/10 06:39:23;;;;;;;39.45;16.50;;;5.60;99.90;;;;;;4684237;30;20095;-77
2022/12/10 06:41:50;;;;;;;36.90;15.65;;;5.60;99.90;;;;;;4699911;30;20491;-77
2022/12/10 06:44:24;;;;;;;33.17;13.13;;;4.80;99.90;;;;;;4715799;30;20545;-77
2022/12/10 06:46:52;;;;;;;27.75;11.05;;;5.60;99.90;;;;;;4718529;30;20505;-77
2022/12/10 06:49:20;;;;;;;30.00;11.10;;;4.40;99.90;;;;;;4734678;30;20067;-77
2022/12/10 06:51:48;;;;;;;27.08;10.40;;;5.60;99.90;;;;;;4717319;30;20056;-77
2022/12/10 06:54:15;;;;;;;26.63;9.40;;;5.60;99.90;;;;;;4733165;30;20581;-77
2022/12/10 06:56:43;;;;;;;24.63;9.00;;;5.50;99.90;;;;;;4719926;30;20049;-77
2022/12/10 06:59:10;;;;;;;26.55;9.95;;;5.50;99.90;;;;;;4734536;30;20060;-77
2022/12/10 08:46:09;;;;;;;31.50;14.65;;;5.50;99.90;;;;;;5815576;24;21035;31
2022/12/10 13:55:15;;;;;;;52.67;18.52;;;5.20;99.90;;;;;;5138158;24;20036;-77
2022/12/10 13:58:19;;;;;;;65.45;24.45;;;5.30;99.90;;;;;;4779454;30;20087;-77
2022/12/10 14:01:11;;;;;;;57.63;22.58;;;5.30;99.90;;;;;;4769952;30;20048;-77
2022/12/10 14:04:17;;;;;;;63.23;25.30;;;5.30;99.90;;;;;;4754238;30;20052;-78
2022/12/10 14:06:46;;;;;;;62.88;24.20;;;4.90;99.90;;;;;;4787850;30;20044;-77
2022/12/10 14:09:22;;;;;;;65.20;25.20;;;5.10;99.90;;;;;;4762115;30;20059;-77
2022/12/10 14:11:53;;;;;;;65.88;24.92;;;5.20;99.90;;;;;;4774656;30;20052;-77
2022/12/10 14:14:42;;;;;;;58.45;24.48;;;5.00;99.90;;;;;;4766266;30;20052;-77
2022/12/10 14:17:18;;;;;;;59.60;23.20;;;5.20;99.90;;;;;;4744946;30;20048;-77
2022/12/10 14:19:49;;;;;;;61.65;25.08;;;5.70;99.90;;;;;;4730403;30;20052;-77
2022/12/10 14:22:30;;;;;;;56.28;21.27;;;5.20;99.90;;;;;;4703278;30;20053;-77
2022/12/10 14:25:06;;;;;;;59.30;24.13;;;5.10;99.90;;;;;;4717833;30;20056;-77
2022/12/10 14:27:35;;;;;;;55.00;22.90;;;5.20;99.90;;;;;;4702854;30;20058;-77
2022/12/10 14:30:19;;;;;;;56.92;24.75;;;5.10;99.90;;;;;;4718417;30;20057;-77
2022/12/10 14:32:49;;;;;;;;;;;5.00;99.90;;;;;;4692401;30;20049;-77
2022/12/10 14:35:22;;;;;;;64.82;26.73;;;5.20;99.90;;;;;;4765934;24;20434;-77
2022/12/10 14:37:54;;;;;;;59.97;25.70;;;5.20;99.90;;;;;;4753258;30;20496;-77
2022/12/10 14:40:24;;;;;;;69.78;28.48;;;5.10;99.90;;;;;;4732289;30;20052;-77
2022/12/10 14:43:02;;;;;;;72.57;30.05;;;5.00;99.90;;;;;;4727488;30;20048;-77
2022/12/10 14:45:43;;;;;;;74.13;29.48;;;5.10;99.90;;;;;;4732728;30;20062;-77
2022/12/10 14:48:19;;;;;;;63.05;26.08;;;4.80;99.90;;;;;;4747833;30;20067;-77
2022/12/10 14:50:46;;;;;;;74.70;28.38;;;4.40;99.90;;;;;;4751873;30;20102;-77
2022/12/10 14:53:17;;;;;;;62.08;26.08;;;5.00;99.90;;;;;;4736346;30;20048;-77
2022/12/10 14:55:58;;;;;;;65.47;25.20;;;5.00;99.90;;;;;;4716476;30;20511;-77
2022/12/10 14:58:42;;;;;;;66.07;26.30;;;4.90;99.90;;;;;;4741365;30;20049;-77
2022/12/10 15:01:15;;;;;;;66.22;27.67;;;5.00;99.90;;;;;;4718296;30;20142;-77
2022/12/10 15:03:46;;;;;;;55.33;23.48;;;4.80;99.90;;;;;;4743132;30;20495;-77
2022/12/10 15:06:21;;;;;;;54.47;22.70;;;5.00;99.90;;;;;;4721360;30;20058;-77
2022/12/10 15:08:52;;;;;;;221.80;87.88;;;4.90;99.90;;;;;;4719858;30;20103;-77
2022/12/10 15:11:21;;;;;;;159.20;75.05;;;5.20;99.90;;;;;;4846367;24;20413;-77
2022/12/10 15:13:53;;;;;;;71.07;31.02;;;4.80;99.90;;;;;;4745427;30;20755;-77
2022/12/10 15:16:31;;;;;;;56.83;22.70;;;4.80;99.90;;;;;;4738230;30;20052;-77
2022/12/10 15:19:27;;;;;;;52.35;23.83;;;5.30;99.90;;;;;;4734814;30;20135;-77
2022/12/10 15:22:11;;;;;;;49.53;22.52;;;4.70;99.90;;;;;;4724435;30;20056;-77
2022/12/10 15:24:42;;;;;;;63.33;25.85;;;4.80;99.90;;;;;;4717978;30;20453;-77
2022/12/10 15:27:21;;;;;;;56.00;24.45;;;4.80;99.90;;;;;;4737384;30;20049;-77
2022/12/10 15:29:50;;;;;;;71.80;29.88;;;3.80;99.90;;;;;;4731176;30;20131;-77
2022/12/10 15:32:29;;;;;;;81.25;33.28;;;4.70;99.90;;;;;;4710443;30;20060;-77
2022/12/10 15:35:04;;;;;;;62.88;28.80;;;4.80;99.90;;;;;;4724820;30;20049;-77
2022/12/10 15:37:35;;;;;;;62.80;26.88;;;4.90;99.90;;;;;;4715339;30;20110;-77
2022/12/10 15:40:27;;;;;;;63.92;25.13;;;4.80;99.90;;;;;;4713522;30;20115;-77
2022/12/10 15:43:24;;;;;;;56.72;22.52;;;4.70;99.90;;;;;;4731767;30;20441;-77
2022/12/10 15:45:52;;;;;;;60.05;27.23;;;4.80;99.90;;;;;;4732869;30;20053;-77
2022/12/10 15:48:28;;;;;;;53.92;24.05;;;4.80;99.90;;;;;;4717538;30;20076;-77
2022/12/10 15:50:57;;;;;;;81.70;33.78;;;4.60;99.90;;;;;;4716606;30;20049;-77
2022/12/10 15:53:29;;;;;;;63.05;24.98;;;3.80;99.90;;;;;;4720561;30;20079;-77
2022/12/10 15:56:02;;;;;;;65.15;28.45;;;4.50;99.90;;;;;;4706100;30;20076;-77
2022/12/10 16:02:00;;;;;;;58.22;23.45;;;4.80;99.90;;;;;;5190640;24;20122;-76
2022/12/10 16:04:28;;;;;;;52.22;23.23;;;4.90;99.90;;;;;;4756194;30;20052;-77
2022/12/10 16:06:56;;;;;;;54.78;24.17;;;4.70;99.90;;;;;;4740034;30;20044;-76
2022/12/10 16:09:24;;;;;;;62.55;29.48;;;4.70;99.90;;;;;;4732933;30;20122;-76
2022/12/10 16:11:56;;;;;;;66.97;30.92;;;4.50;99.90;;;;;;4764467;30;20060;-76
2022/12/10 16:14:24;;;;;;;63.17;29.02;;;4.60;99.90;;;;;;4735472;30;20537;-76
2022/12/10 16:16:56;;;;;;;61.00;28.38;;;4.70;99.90;;;;;;4715634;30;20045;-76
2022/12/10 16:19:24;;;;;;;66.38;30.40;;;4.70;99.90;;;;;;4710969;30;20045;-76
2022/12/10 16:21:52;;;;;;;72.07;30.85;;;4.20;99.90;;;;;;4708058;30;20053;-76
2022/12/10 16:24:20;;;;;;;75.32;31.73;;;4.50;99.90;;;;;;4701383;30;20104;-76
2022/12/10 16:26:51;;;;;;;77.47;32.58;;;4.70;99.90;;;;;;4687831;30;20465;-76
2022/12/10 16:29:21;;;;;;;67.88;28.05;;;4.70;99.90;;;;;;4689799;30;20502;-76
2022/12/10 16:31:50;;;;;;;77.53;35.15;;;4.70;99.90;;;;;;4699588;30;20049;-76
2022/12/10 16:34:18;;;;;;;82.82;33.65;;;4.70;99.90;;;;;;4708159;30;20052;-76
2022/12/10 16:36:49;;;;;;;80.07;33.58;;;4.70;99.90;;;;;;4687525;30;20107;-76
2022/12/10 16:39:17;;;;;;;94.07;33.97;;;3.40;99.90;;;;;;4694785;30;20049;-76
2022/12/10 16:41:52;;;;;;;88.75;31.67;;;4.80;99.90;;;;;;4697672;30;20067;-76
2022/12/10 16:44:21;;;;;;;77.38;29.05;;;4.80;99.90;;;;;;4694611;30;20061;-76
2022/12/10 16:46:50;;;;;;;80.40;32.65;;;4.80;99.90;;;;;;4700737;30;20060;-76
2022/12/10 16:49:18;;;;;;;82.10;31.33;;;4.80;99.90;;;;;;4714663;30;20135;-76
2022/12/10 16:51:47;;;;;;;73.03;32.55;;;4.10;99.90;;;;;;4681843;30;20048;-76
2022/12/10 16:54:17;;;;;;;71.65;30.02;;;4.70;99.90;;;;;;4732980;30;20514;-76
2022/12/10 16:56:47;;;;;;;67.15;30.27;;;4.80;99.90;;;;;;4728031;30;20492;-76
2022/12/10 16:59:15;;;;;;;60.83;26.42;;;4.80;99.90;;;;;;4709729;30;20041;-76
2022/12/10 17:01:45;;;;;;;68.95;29.17;;;4.80;99.90;;;;;;4688635;30;20545;-76
2022/12/10 17:04:13;;;;;;;68.07;27.95;;;4.80;99.90;;;;;;4700148;30;20110;-76
2022/12/10 17:06:41;;;;;;;62.85;25.67;;;4.80;99.90;;;;;;4694937;30;20053;-76
2022/12/10 17:09:10;;;;;;;61.42;24.83;;;6.40;99.90;;;;;;4684137;30;20122;-76
2022/12/10 17:11:44;;;;;;;65.97;29.52;;;4.80;99.90;;;;;;4678356;30;20522;-76
2022/12/10 17:24:19;;;;;;;49.47;19.65;;;4.90;99.90;;;;;;5430929;24;20077;-78
2022/12/10 17:36:41;;;;;;;48.13;20.15;;;4.90;99.90;;;;;;5137662;24;20050;-79
2022/12/10 18:29:56;;;;;;;46.30;19.83;;;5.00;99.90;;;;;;5077324;24;20056;-78
2022/12/10 18:35:48;;;;;;;57.95;25.55;;;5.00;99.90;;;;;;5109399;24;20062;-78
2022/12/10 18:38:22;;;;;;;46.78;21.00;;;5.10;99.90;;;;;;5167591;24;20065;-78
2022/12/10 18:47:25;;;;;;;52.35;24.13;;;5.10;99.90;;;;;;5687783;24;20074;-79
2022/12/10 18:49:52;;;;;;;47.33;19.05;;;5.10;99.90;;;;;;5103341;24;20064;-78
2022/12/10 18:52:34;;;;;;;48.97;19.33;;;5.10;99.90;;;;;;5285518;24;20097;31
2022/12/10 18:58:37;;;;;;;51.65;23.40;;;5.10;99.90;;;;;;4856737;24;20045;-79
2022/12/10 19:01:06;;;;;;;49.95;21.50;;;5.10;99.90;;;;;;4771979;30;20048;-79
2022/12/10 19:03:35;;;;;;;54.97;23.05;;;5.10;99.90;;;;;;4734512;30;20053;-79
2022/12/10 19:06:04;;;;;;;53.70;25.85;;;5.10;99.90;;;;;;4721015;30;20060;-79
2022/12/10 19:13:22;;;;;;;52.03;22.97;;;5.10;99.90;;;;;;5147759;24;20030;31
2022/12/10 19:16:29;;;;;;;52.15;22.10;;;5.10;99.90;;;;;;5187462;24;20026;31
2022/12/10 19:19:01;;;;;;;42.50;18.08;;;5.10;99.90;;;;;;4739550;30;20037;-79
2022/12/10 19:21:38;;;;;;;43.05;19.35;;;5.10;99.90;;;;;;4879504;24;20112;-79
2022/12/10 19:24:08;;;;;;;45.42;18.80;;;5.10;99.90;;;;;;4738489;30;20036;-80
2022/12/10 19:26:39;;;;;;;47.47;20.67;;;5.10;99.90;;;;;;4765142;30;20045;-79
2022/12/10 19:29:18;;;;;;;50.90;23.10;;;5.10;99.90;;;;;;4752947;30;20056;-79
2022/12/10 19:34:59;;;;;;;41.13;17.65;;;5.20;99.90;;;;;;5107402;24;20060;31
2022/12/10 19:37:30;;;;;;;43.83;18.77;;;5.20;99.90;;;;;;4756383;30;20043;-78
2022/12/10 19:39:58;;;;;;;46.13;19.88;;;5.20;99.90;;;;;;4742796;30;20040;-78
2022/12/10 19:42:49;;;;;;;39.17;16.50;;;5.20;99.90;;;;;;4737631;30;20052;-77
2022/12/10 19:45:20;;;;;;;40.13;15.85;;;5.20;99.90;;;;;;4718821;30;20057;-78
2022/12/10 19:47:58;;;;;;;42.25;17.15;;;5.20;99.90;;;;;;4721520;30;20049;-78
2022/12/10 19:50:34;;;;;;;36.63;16.95;;;5.20;99.90;;;;;;4733887;30;20049;-78
2022/12/10 19:53:08;;;;;;;37.33;16.05;;;5.20;99.90;;;;;;4731752;30;20064;-78
2022/12/10 19:55:38;;;;;;;39.35;17.85;;;5.20;99.90;;;;;;4713970;30;20057;-78
2022/12/10 19:58:12;;;;;;;39.17;17.25;;;5.30;99.90;;;;;;4731789;30;20064;-77
2022/12/10 20:00:42;;;;;;;36.88;18.13;;;5.30;99.90;;;;;;4703977;30;20045;-78
2022/12/10 20:03:16;;;;;;;34.92;15.35;;;5.30;99.90;;;;;;4694223;30;20153;-78
2022/12/10 20:05:47;;;;;;;42.25;17.55;;;5.30;99.90;;;;;;4683982;30;20047;-78
2022/12/10 20:08:17;;;;;;;40.75;17.50;;;5.30;99.90;;;;;;4678995;30;20108;-78
2022/12/10 20:10:52;;;;;;;41.30;18.33;;;5.30;99.90;;;;;;4686553;30;20129;-78
2022/12/10 20:13:20;;;;;;;39.97;19.60;;;5.30;99.90;;;;;;4682528;30;20034;-78
2022/12/10 20:15:51;;;;;;;50.05;24.00;;;5.30;99.90;;;;;;4680143;30;20122;-78
2022/12/10 20:18:19;;;;;;;47.47;25.95;;;5.30;99.90;;;;;;4688871;30;20072;-78
2022/12/10 20:20:50;;;;;;;37.42;18.70;;;5.30;99.90;;;;;;4679606;30;20076;-78
2022/12/10 20:23:24;;;;;;;39.97;18.08;;;5.10;99.90;;;;;;4658853;30;20582;-78
2022/12/10 20:26:01;;;;;;;35.28;16.10;;;5.30;99.90;;;;;;4692357;30;20150;-78
2022/12/10 20:28:30;;;;;;;48.72;22.60;;;5.30;99.90;;;;;;4668073;30;20054;-78
2022/12/10 20:30:59;;;;;;;57.08;32.53;;;5.30;99.90;;;;;;4687921;30;20057;-78
2022/12/10 20:33:34;;;;;;;62.60;33.15;;;5.30;99.90;;;;;;4866800;24;20053;-78
2022/12/10 20:36:21;;;;;;;54.00;28.42;;;5.30;99.90;;;;;;4750372;30;20534;-78
2022/12/10 20:38:50;;;;;;;49.78;24.10;;;5.30;99.90;;;;;;4766560;30;20058;-78
2022/12/10 20:41:32;;;;;;;51.72;28.73;;;5.30;99.90;;;;;;4749179;30;20052;-78
2022/12/10 20:44:27;;;;;;;41.15;20.00;;;5.30;99.90;;;;;;4720428;30;20046;-78
2022/12/10 20:46:56;;;;;;;39.72;18.95;;;5.30;99.90;;;;;;4691072;30;20119;-78
2022/12/10 20:49:26;;;;;;;42.38;19.80;;;5.30;99.90;;;;;;4676345;30;20134;-78
2022/12/10 20:51:54;;;;;;;34.90;18.77;;;5.30;99.90;;;;;;4697522;30;20046;-78
2022/12/10 20:54:27;;;;;;;35.00;17.58;;;5.30;99.90;;;;;;4678142;30;20058;-78
2022/12/10 20:56:59;;;;;;;38.20;19.25;;;5.30;99.90;;;;;;4656472;30;20051;-78
2022/12/10 20:59:33;;;;;;;36.08;16.90;;;5.30;99.90;;;;;;4649365;30;20067;-78
2022/12/10 21:02:06;;;;;;;39.92;18.60;;;5.30;99.90;;;;;;4631542;30;20089;-78
2022/12/10 21:04:35;;;;;;;37.97;19.88;;;5.30;99.90;;;;;;4636429;30;20063;-78
2022/12/10 21:07:14;;;;;;;40.58;20.08;;;5.30;99.90;;;;;;4639795;30;20078;-78
2022/12/10 21:09:43;;;;;;;35.38;15.27;;;5.30;99.90;;;;;;4659657;30;20081;-78
2022/12/10 21:12:12;;;;;;;31.75;14.98;;;5.30;99.90;;;;;;4691744;30;20050;-78
2022/12/10 21:14:40;;;;;;;35.92;15.02;;;5.30;99.90;;;;;;4691055;30;20098;-78
2022/12/10 21:17:22;;;;;;;31.13;13.10;;;5.30;99.90;;;;;;4692889;30;20081;-78
2022/12/10 21:19:54;;;;;;;29.10;13.40;;;5.30;99.90;;;;;;4726749;30;20060;-78
2022/12/10 21:22:24;;;;;;;28.90;14.18;;;5.30;99.90;;;;;;4741842;30;20127;-78
2022/12/10 21:24:52;;;;;;;34.33;18.65;;;5.30;99.90;;;;;;4708361;30;20076;-78
2022/12/10 21:27:19;;;;;;;31.65;14.52;;;5.30;99.90;;;;;;4712832;30;20048;-78
2022/12/10 21:29:47;;;;;;;31.30;15.15;;;5.30;99.90;;;;;;4752742;30;20099;-78
2022/12/10 21:32:17;;;;;;;29.80;13.90;;;5.30;99.90;;;;;;4728653;30;20063;-78
2022/12/10 21:34:49;;;;;;;29.33;13.13;;;5.30;99.90;;;;;;4728090;30;20076;-78
2022/12/10 21:37:19;;;;;;;25.92;13.32;;;5.30;99.90;;;;;;4726748;30;20037;-78
2022/12/10 21:39:46;;;;;;;44.28;22.20;;;5.30;99.90;;;;;;4737163;30;20048;-78
2022/12/10 21:45:01;;;;;;;28.42;14.95;;;5.30;99.90;;;;;;4749216;30;20045;-78
2022/12/10 21:47:30;;;;;;;31.25;16.58;;;5.30;99.90;;;;;;4709049;30;20049;-78
2022/12/10 21:49:58;;;;;;;29.33;15.07;;;5.30;99.90;;;;;;4722481;30;20044;-78
2022/12/10 21:52:27;;;;;;;30.05;15.20;;;5.30;99.90;;;;;;4715201;30;20053;-78
2022/12/10 21:55:05;;;;;;;24.10;11.75;;;5.30;99.90;;;;;;4728556;30;20050;-77
2022/12/10 21:57:36;;;;;;;24.25;12.63;;;5.30;99.90;;;;;;4714104;30;20168;-77
2022/12/10 22:00:04;;;;;;;27.95;15.45;;;5.30;99.90;;;;;;4712856;30;20049;-78
2022/12/10 22:02:53;;;;;;;28.77;14.13;;;5.30;99.90;;;;;;4689311;30;20100;-78
2022/12/10 22:05:20;;;;;;;30.23;13.23;;;5.30;99.90;;;;;;4660297;30;20113;-78
2022/12/10 22:07:49;;;;;;;22.58;10.32;;;5.30;99.90;;;;;;4671650;30;20058;-78
2022/12/10 22:10:18;;;;;;;21.00;10.70;;;5.30;99.90;;;;;;4688493;30;20057;-78
2022/12/10 22:12:45;;;;;;;26.05;13.15;;;5.30;99.90;;;;;;4683970;30;20066;-78
2022/12/10 22:15:13;;;;;;;26.08;12.00;;;5.30;99.90;;;;;;4682064;30;20447;-78
2022/12/10 22:17:42;;;;;;;22.45;10.25;;;5.40;99.90;;;;;;4687727;30;20065;-77
2022/12/10 22:20:12;;;;;;;25.60;11.27;;;5.30;99.90;;;;;;4680296;30;20062;-78
2022/12/10 22:22:45;;;;;;;17.48;8.80;;;5.30;99.90;;;;;;4670931;30;20598;-78
2022/12/10 22:25:12;;;;;;;21.63;10.00;;;5.30;99.90;;;;;;4686958;30;20047;-78
2022/12/10 22:27:47;;;;;;;18.40;9.40;;;5.30;99.90;;;;;;4683235;30;20065;-78
2022/12/10 22:30:14;;;;;;;20.75;10.48;;;5.30;99.90;;;;;;4695515;30;20439;-78
2022/12/10 22:32:45;;;;;;;15.35;7.50;;;5.30;99.90;;;;;;4671603;30;20054;-78
2022/12/10 22:35:12;;;;;;;18.38;7.95;;;5.30;99.90;;;;;;4736429;30;20064;-78
2022/12/10 22:37:42;;;;;;;18.52;8.65;;;5.30;99.90;;;;;;4723470;30;20046;-78
2022/12/10 22:40:11;;;;;;;14.02;6.88;;;5.30;99.90;;;;;;4730120;30;20053;-78
2022/12/10 22:42:39;;;;;;;16.58;7.45;;;5.30;99.90;;;;;;4735446;30;20053;-78
2022/12/10 22:45:09;;;;;;;16.08;7.40;;;5.30;99.90;;;;;;4719691;30;20132;-78
2022/12/10 22:47:37;;;;;;;16.98;8.02;;;5.20;99.90;;;;;;4726282;30;20053;-78
2022/12/10 22:50:05;;;;;;;17.65;8.40;;;5.20;99.90;;;;;;4732471;30;20072;-78
2022/12/10 22:52:33;;;;;;;17.98;8.32;;;5.20;99.90;;;;;;4721819;30;20046;-78
2022/12/10 22:55:00;;;;;;;16.25;7.57;;;5.20;99.90;;;;;;4697964;30;20148;-78
2022/12/10 22:57:32;;;;;;;14.32;7.82;;;5.20;99.90;;;;;;4733573;30;20069;-78
2022/12/10 22:59:59;;;;;;;14.00;7.53;;;5.20;99.90;;;;;;4702662;30;20136;-78
2022/12/10 23:02:26;;;;;;;15.82;7.70;;;5.20;99.90;;;;;;4702289;30;20064;-76
2022/12/10 23:04:54;;;;;;;15.82;8.60;;;5.10;99.90;;;;;;4695090;30;20867;-77
2022/12/10 23:07:21;;;;;;;14.43;7.60;;;5.10;99.90;;;;;;4742844;30;20067;-77
2022/12/10 23:09:48;;;;;;;16.63;8.73;;;5.10;99.90;;;;;;4735221;30;20066;-77
2022/12/10 23:15:01;;;;;;;16.63;6.88;;;5.00;99.90;;;;;;4742013;30;20048;-77
2022/12/10 23:17:28;;;;;;;15.93;7.32;;;5.00;99.90;;;;;;4718993;30;20048;-77
2022/12/10 23:19:55;;;;;;;13.93;6.65;;;5.00;99.90;;;;;;4726291;30;20131;-77
2022/12/10 23:22:22;;;;;;;16.60;6.38;;;5.00;99.90;;;;;;4731139;30;20155;-77
2022/12/10 23:24:50;;;;;;;13.13;7.07;;;5.00;99.90;;;;;;4743592;30;20068;-77
2022/12/10 23:27:17;;;;;;;14.95;7.38;;;4.90;99.90;;;;;;4735587;30;20500;-77
2022/12/10 23:29:45;;;;;;;14.02;6.97;;;5.00;99.90;;;;;;4741182;30;20045;-77
2022/12/10 23:32:12;;;;;;;14.70;6.30;;;5.00;99.90;;;;;;4745843;30;20096;-76
2022/12/10 23:34:39;;;;;;;14.82;7.53;;;4.90;99.90;;;;;;4732652;30;20124;-76
2022/12/10 23:37:07;;;;;;;17.20;8.63;;;5.00;99.90;;;;;;4745643;30;20052;-77
2022/12/10 23:39:34;;;;;;;18.10;9.55;;;4.90;99.90;;;;;;4720027;30;20114;-77
2022/12/10 23:42:01;;;;;;;15.75;7.18;;;5.00;99.90;;;;;;4729827;30;20509;-76
2022/12/10 23:44:29;;;;;;;17.33;8.38;;;4.90;99.90;;;;;;4737580;30;20052;-77
2022/12/10 23:46:56;;;;;;;15.63;7.97;;;4.90;99.90;;;;;;4719056;30;20326;-77
2022/12/10 23:49:24;;;;;;;16.50;6.78;;;4.90;99.90;;;;;;4725572;30;20041;-76
2022/12/10 23:51:51;;;;;;;12.73;5.80;;;4.30;99.90;;;;;;4715549;30;20052;-76
2022/12/10 23:54:18;;;;;;;15.80;7.28;;;4.90;99.90;;;;;;4745294;30;20413;-77
2022/12/10 23:56:46;;;;;;;15.82;6.38;;;4.90;99.90;;;;;;4715563;30;20476;-76
2022/12/10 23:59:13;;;;;;;15.13;7.15;;;4.80;99.90;;;;;;4729495;30;20080;-77
